createdAt,value
2022-12-18T00:00:26.020Z,19.90
2022-12-18T00:03:16.717Z,20.60
2022-12-18T00:05:53.632Z,21.60
2022-12-18T00:08:23.065Z,21.20
2022-12-18T00:10:52.410Z,17.80
2022-12-18T00:13:21.835Z,20.30
2022-12-18T00:15:51.651Z,22.10
2022-12-18T00:18:21.343Z,16.70
2022-12-18T00:20:51.254Z,20.70
2022-12-18T00:23:20.549Z,19.60
2022-12-18T00:25:49.537Z,22.60
2022-12-18T00:28:18.333Z,22.80
2022-12-18T00:30:52.908Z,23.90
2022-12-18T00:33:21.838Z,22.90
2022-12-18T00:35:51.466Z,21.80
2022-12-18T00:38:21.035Z,22.90
2022-12-18T00:40:50.449Z,26.50
2022-12-18T00:43:19.669Z,24.30
2022-12-18T00:45:49.199Z,26.50
2022-12-18T00:48:18.456Z,29.80
2022-12-18T00:50:49.501Z,24.40
2022-12-18T00:53:19.639Z,27.00
2022-12-18T00:55:48.887Z,22.60
2022-12-18T00:58:18.420Z,24.10
2022-12-18T01:00:47.462Z,23.60
2022-12-18T01:03:16.727Z,24.50
2022-12-18T01:05:47.065Z,27.10
2022-12-18T01:08:16.481Z,31.10
2022-12-18T01:10:46.250Z,31.70
2022-12-18T01:13:15.895Z,31.60
2022-12-18T01:15:52.505Z,26.70
2022-12-18T01:18:22.039Z,28.40
2022-12-18T01:20:53.581Z,29.10
2022-12-18T01:23:23.606Z,27.70
2022-12-18T01:25:55.979Z,29.90
2022-12-18T01:28:24.966Z,29.30
2022-12-18T01:30:54.588Z,30.90
2022-12-18T01:33:24.493Z,33.00
2022-12-18T01:38:24.463Z,28.50
2022-12-18T01:40:59.736Z,27.00
2022-12-18T01:43:53.334Z,27.10
2022-12-18T01:46:25.837Z,28.10
2022-12-18T01:49:01.838Z,27.40
2022-12-18T01:51:32.530Z,28.40
2022-12-18T01:54:02.803Z,28.30
2022-12-18T01:56:33.239Z,30.70
2022-12-18T01:59:10.758Z,26.60
2022-12-18T02:01:40.853Z,27.10
2022-12-18T02:04:28.833Z,31.80
2022-12-18T02:07:16.538Z,26.60
2022-12-18T02:09:59.246Z,29.10
2022-12-18T02:12:51.684Z,26.90
2022-12-18T02:15:33.898Z,31.70
2022-12-18T02:18:13.626Z,27.30
2022-12-18T02:20:50.895Z,26.60
2022-12-18T02:23:34.263Z,30.10
2022-12-18T02:26:20.082Z,26.30
2022-12-18T02:29:01.074Z,32.20
2022-12-18T02:31:37.381Z,29.90
2022-12-18T02:34:11.262Z,26.70
2022-12-18T02:36:46.060Z,27.50
2022-12-18T02:39:18.088Z,25.10
2022-12-18T02:42:01.145Z,26.40
2022-12-18T02:44:31.600Z,27.10
2022-12-18T02:47:03.630Z,27.90
2022-12-18T02:49:50.223Z,24.90
2022-12-18T02:52:41.145Z,28.10
2022-12-18T02:55:27.821Z,27.30
2022-12-18T02:58:16.289Z,28.20
2022-12-18T03:01:09.063Z,31.30
2022-12-18T03:03:45.057Z,27.50
2022-12-18T03:06:25.007Z,24.30
2022-12-18T03:09:00.553Z,25.60
2022-12-18T03:11:54.242Z,30.50
2022-12-18T03:14:28.645Z,24.60
2022-12-18T03:17:03.118Z,30.30
2022-12-18T03:19:35.715Z,32.10
2022-12-18T03:22:09.399Z,32.40
2022-12-18T03:24:50.624Z,38.30
2022-12-18T03:27:24.342Z,35.70
2022-12-18T03:30:08.836Z,37.20
2022-12-18T03:33:13.179Z,32.20
2022-12-18T03:35:47.643Z,29.70
2022-12-18T03:38:18.729Z,27.70
2022-12-18T03:40:49.095Z,33.10
2022-12-18T03:43:31.552Z,34.50
2022-12-18T03:46:26.552Z,32.90
2022-12-18T03:49:23.909Z,30.30
2022-12-18T03:52:19.394Z,33.00
2022-12-18T03:54:51.067Z,26.60
2022-12-18T03:57:24.097Z,27.50
2022-12-18T04:00:01.702Z,32.40
2022-12-18T04:02:51.396Z,29.80
2022-12-18T04:05:27.910Z,29.10
2022-12-18T04:07:58.285Z,32.50
2022-12-18T04:10:29.614Z,31.40
2022-12-18T04:13:00.389Z,32.50
2022-12-18T04:15:35.127Z,31.80
2022-12-18T04:18:06.348Z,30.50
2022-12-18T04:20:42.644Z,30.80
2022-12-18T04:23:13.232Z,32.60
2022-12-18T04:28:16.486Z,29.50
2022-12-18T04:30:47.572Z,25.10
2022-12-18T04:33:19.281Z,24.30
2022-12-18T04:35:50.086Z,22.60
2022-12-18T04:38:21.597Z,25.00
2022-12-18T04:40:55.221Z,22.70
2022-12-18T04:43:28.501Z,25.60
2022-12-18T04:46:09.180Z,26.60
2022-12-18T04:48:39.165Z,23.60
2022-12-18T04:51:09.106Z,23.50
2022-12-18T04:53:39.360Z,25.70
2022-12-18T04:56:11.414Z,25.90
2022-12-18T04:58:42.516Z,22.70
2022-12-18T05:01:13.556Z,26.40
2022-12-18T05:03:43.209Z,22.60
2022-12-18T05:06:12.605Z,21.60
2022-12-18T05:08:42.099Z,25.90
2022-12-18T05:11:15.307Z,21.00
2022-12-18T05:13:45.842Z,21.50
2022-12-18T05:16:16.444Z,25.10
2022-12-18T05:18:45.762Z,21.40
2022-12-18T05:21:15.167Z,22.40
2022-12-18T05:23:44.512Z,21.00
2022-12-18T05:26:18.535Z,22.50
2022-12-18T05:28:47.862Z,23.20
2022-12-18T05:31:16.809Z,19.50
2022-12-18T05:33:45.933Z,19.80
2022-12-18T05:36:15.150Z,22.80
2022-12-18T05:38:44.342Z,22.40
2022-12-18T05:41:13.029Z,24.30
2022-12-18T05:43:43.231Z,19.60
2022-12-18T05:46:19.158Z,24.10
2022-12-18T05:48:49.742Z,19.20
2022-12-18T05:51:21.209Z,23.70
2022-12-18T05:53:50.380Z,19.60
2022-12-18T05:56:21.562Z,22.60
2022-12-18T05:58:54.528Z,23.40
2022-12-18T06:01:27.593Z,23.30
2022-12-18T06:03:56.872Z,24.60
2022-12-18T06:06:28.368Z,25.40
2022-12-18T06:08:58.182Z,19.30
2022-12-18T06:11:28.201Z,23.10
2022-12-18T06:13:59.543Z,25.80
2022-12-18T06:16:30.233Z,25.80
2022-12-18T06:19:01.822Z,24.70
2022-12-18T06:21:31.725Z,23.60
2022-12-18T06:26:30.022Z,23.90
2022-12-18T06:28:58.707Z,25.40
2022-12-18T06:31:27.967Z,26.20
2022-12-18T06:33:57.814Z,25.40
2022-12-18T06:36:26.394Z,19.80
2022-12-18T06:38:58.980Z,18.90
2022-12-18T06:41:28.170Z,23.90
2022-12-18T06:43:59.784Z,21.80
2022-12-18T06:46:28.928Z,22.90
2022-12-18T06:48:57.614Z,26.00
2022-12-18T06:51:26.709Z,23.30
2022-12-18T06:53:55.389Z,26.30
2022-12-18T06:56:24.279Z,27.40
2022-12-18T06:58:53.167Z,20.90
2022-12-18T07:01:22.520Z,25.20
2022-12-18T07:03:57.109Z,26.40
2022-12-18T07:06:27.343Z,22.70
2022-12-18T07:11:25.596Z,22.40
2022-12-18T07:13:55.031Z,28.10
2022-12-18T07:16:25.694Z,26.50
2022-12-18T07:18:56.900Z,26.80
2022-12-18T07:21:26.196Z,21.80
2022-12-18T07:23:55.392Z,27.10
2022-12-18T07:26:24.687Z,24.90
2022-12-18T07:28:57.056Z,26.40
2022-12-18T07:31:26.805Z,28.20
2022-12-18T07:33:55.756Z,27.90
2022-12-18T07:36:24.337Z,28.90
2022-12-18T07:38:54.210Z,23.90
2022-12-18T07:41:23.352Z,27.10
2022-12-18T07:43:51.932Z,26.30
2022-12-18T07:46:20.674Z,27.70
2022-12-18T07:48:50.449Z,23.00
2022-12-18T07:51:20.139Z,27.80
2022-12-18T07:53:52.114Z,23.60
2022-12-18T07:56:31.144Z,27.10
2022-12-18T07:59:00.850Z,28.30
2022-12-18T08:01:32.734Z,22.20
2022-12-18T08:04:01.796Z,27.30
2022-12-18T08:06:30.484Z,28.00
2022-12-18T08:08:59.263Z,28.50
2022-12-18T08:11:29.057Z,28.10
2022-12-18T08:13:58.854Z,26.90
2022-12-18T08:16:27.549Z,23.90
2022-12-18T08:18:56.371Z,30.10
2022-12-18T08:21:27.733Z,30.30
2022-12-18T08:23:58.802Z,30.70
2022-12-18T08:26:30.565Z,28.70
2022-12-18T08:29:00.992Z,26.90
2022-12-18T08:31:31.600Z,29.70
2022-12-18T08:34:00.563Z,25.40
2022-12-18T08:36:29.357Z,27.90
2022-12-18T08:38:58.646Z,32.60
2022-12-18T08:41:28.972Z,27.50
2022-12-18T08:44:16.299Z,28.50
2022-12-18T08:46:45.905Z,26.20
2022-12-18T08:49:14.484Z,28.30
2022-12-18T08:51:43.173Z,28.80
2022-12-18T08:54:15.336Z,30.60
2022-12-18T08:56:44.128Z,27.90
2022-12-18T08:59:19.044Z,26.50
2022-12-18T09:01:49.349Z,22.30
2022-12-18T09:04:17.980Z,31.40
2022-12-18T09:06:46.661Z,28.00
2022-12-18T09:09:15.443Z,30.50
2022-12-18T09:11:44.128Z,28.10
2022-12-18T09:14:12.812Z,26.50
2022-12-18T09:16:41.643Z,27.50
2022-12-18T09:19:11.691Z,28.00
2022-12-18T09:21:46.074Z,25.90
2022-12-18T09:24:17.385Z,23.40
2022-12-18T09:26:47.232Z,22.70
2022-12-18T09:29:18.684Z,26.00
2022-12-18T09:31:48.977Z,23.00
2022-12-18T09:34:17.918Z,25.90
2022-12-18T09:36:46.441Z,23.30
2022-12-18T09:39:16.565Z,24.50
2022-12-18T09:41:54.788Z,25.90
2022-12-18T09:44:47.765Z,27.80
2022-12-18T09:47:19.173Z,26.80
2022-12-18T09:49:52.467Z,26.30
2022-12-18T09:52:24.734Z,26.60
2022-12-18T09:55:12.013Z,21.20
2022-12-18T09:57:48.628Z,24.00
2022-12-18T10:00:22.927Z,22.50
2022-12-18T10:02:54.812Z,25.40
2022-12-18T10:05:42.001Z,24.40
2022-12-18T10:08:29.347Z,21.80
2022-12-18T10:11:20.357Z,22.10
2022-12-18T10:14:04.096Z,25.70
2022-12-18T10:16:44.659Z,20.90
2022-12-18T10:19:25.727Z,22.30
2022-12-18T10:22:14.799Z,22.80
2022-12-18T10:24:52.310Z,20.70
2022-12-18T10:27:26.161Z,22.90
2022-12-18T10:29:55.499Z,26.20
2022-12-18T10:32:28.078Z,22.40
2022-12-18T10:35:00.753Z,21.20
2022-12-18T10:37:31.280Z,44.20
2022-12-18T10:43:13.835Z,27.10
2022-12-18T10:45:58.809Z,36.40
2022-12-18T10:48:28.590Z,24.70
2022-12-18T10:51:13.849Z,28.00
2022-12-18T10:53:44.496Z,25.30
2022-12-18T10:56:13.797Z,36.40
2022-12-18T10:58:42.683Z,37.90
2022-12-18T11:01:13.500Z,28.70
2022-12-18T11:04:06.640Z,27.00
2022-12-18T11:06:35.365Z,32.10
2022-12-18T11:09:20.128Z,31.60
2022-12-18T11:12:00.430Z,40.70
2022-12-18T11:14:33.577Z,33.30
2022-12-18T11:17:24.931Z,33.00
2022-12-18T11:20:01.565Z,25.20
2022-12-18T11:22:33.355Z,29.60
2022-12-18T11:28:30.367Z,24.60
2022-12-18T11:31:21.040Z,21.50
2022-12-18T11:34:30.630Z,22.70
2022-12-18T11:37:02.379Z,24.50
2022-12-18T11:39:41.935Z,26.10
2022-12-18T11:42:18.610Z,24.20
2022-12-18T11:45:00.717Z,20.80
2022-12-18T11:47:39.019Z,27.80
2022-12-18T11:50:28.085Z,24.50
2022-12-18T11:53:01.482Z,25.30
2022-12-18T11:56:17.887Z,23.40
2022-12-18T11:59:07.295Z,24.00
2022-12-18T12:01:51.436Z,19.20
2022-12-18T12:04:35.791Z,19.60
2022-12-18T12:07:25.944Z,22.30
2022-12-18T12:10:26.987Z,18.80
2022-12-18T12:13:37.460Z,18.60
2022-12-18T12:16:18.210Z,16.50
2022-12-18T12:19:16.913Z,17.80
2022-12-18T12:22:09.048Z,19.20
2022-12-18T12:24:37.940Z,18.00
2022-12-18T12:27:33.959Z,20.00
2022-12-18T12:30:26.505Z,21.10
2022-12-18T12:33:16.697Z,22.00
2022-12-18T12:36:01.874Z,19.50
2022-12-18T12:38:38.028Z,16.00
2022-12-18T12:41:29.756Z,16.70
2022-12-18T12:44:03.054Z,17.30
2022-12-18T12:46:35.347Z,19.60
2022-12-18T12:49:10.795Z,19.90
2022-12-18T12:51:42.909Z,18.10
2022-12-18T12:54:22.880Z,19.30
2022-12-18T12:57:10.815Z,19.10
2022-12-18T13:00:02.260Z,19.80
2022-12-18T13:02:37.298Z,16.00
2022-12-18T13:05:16.294Z,17.60
2022-12-18T13:07:51.855Z,21.40
2022-12-18T13:10:28.820Z,18.90
2022-12-18T13:13:08.966Z,18.80
2022-12-18T13:15:46.879Z,18.00
2022-12-18T13:18:26.520Z,14.00
2022-12-18T13:21:03.311Z,21.00
2022-12-18T13:23:37.902Z,18.80
2022-12-18T13:26:09.577Z,18.60
2022-12-18T13:28:47.651Z,21.20
2022-12-18T13:31:42.280Z,19.70
2022-12-18T13:34:27.706Z,23.30
2022-12-18T13:37:33.264Z,24.90
2022-12-18T13:40:01.989Z,24.70
2022-12-18T13:42:59.768Z,20.20
2022-12-18T13:45:43.094Z,22.40
2022-12-18T13:48:27.229Z,20.70
2022-12-18T13:51:06.951Z,20.70
2022-12-18T13:53:57.986Z,21.80
2022-12-18T13:56:32.657Z,21.20
2022-12-18T13:59:10.204Z,23.30
2022-12-18T14:01:46.303Z,23.40
2022-12-18T14:04:34.709Z,23.50
2022-12-18T14:07:17.254Z,25.80
2022-12-18T14:10:12.677Z,26.30
2022-12-18T14:13:00.351Z,27.80
2022-12-18T14:15:35.021Z,22.10
2022-12-18T14:18:21.696Z,23.00
2022-12-18T14:20:53.736Z,19.40
2022-12-18T14:23:42.095Z,24.50
2022-12-18T14:26:24.921Z,23.40
2022-12-18T14:28:55.145Z,22.80
2022-12-18T14:31:29.565Z,23.70
2022-12-18T14:33:58.250Z,20.30
2022-12-18T14:36:29.498Z,24.10
2022-12-18T14:38:59.817Z,22.50
2022-12-18T14:41:30.042Z,22.70
2022-12-18T14:44:09.255Z,20.90
2022-12-18T14:46:43.698Z,25.00
2022-12-18T14:49:35.422Z,23.10
2022-12-18T14:52:07.692Z,23.80
2022-12-18T14:54:39.524Z,26.90
2022-12-18T14:57:24.108Z,23.90
2022-12-18T14:59:53.310Z,24.80
2022-12-18T15:02:27.898Z,27.40
2022-12-18T15:05:19.365Z,25.50
2022-12-18T15:07:49.874Z,22.70
2022-12-18T15:13:08.680Z,22.70
2022-12-18T15:15:37.356Z,30.40
2022-12-18T15:18:08.882Z,26.50
2022-12-18T15:20:44.842Z,25.70
2022-12-18T15:23:18.081Z,25.00
2022-12-18T15:25:49.096Z,20.20
2022-12-18T15:28:25.850Z,22.50
2022-12-18T15:31:00.808Z,18.20
2022-12-18T15:33:37.056Z,15.90
2022-12-18T15:36:11.275Z,30.00
2022-12-18T15:38:40.414Z,21.90
2022-12-18T15:41:20.113Z,19.50
2022-12-18T15:43:54.520Z,21.30
2022-12-18T15:46:25.517Z,19.10
2022-12-18T15:49:02.275Z,23.20
2022-12-18T15:51:34.804Z,21.00
2022-12-18T15:54:06.369Z,21.90
2022-12-18T15:56:53.379Z,21.70
2022-12-18T15:59:22.560Z,19.50
2022-12-18T16:01:56.326Z,19.70
2022-12-18T16:04:25.973Z,24.70
2022-12-18T16:09:44.351Z,19.70
2022-12-18T16:12:26.084Z,21.80
2022-12-18T16:14:54.628Z,19.20
2022-12-18T16:17:23.426Z,18.00
2022-12-18T16:19:51.889Z,15.80
2022-12-18T16:22:27.438Z,20.20
2022-12-18T16:24:57.567Z,22.60
2022-12-18T16:27:26.857Z,24.50
2022-12-18T16:29:55.444Z,25.90
2022-12-18T16:32:24.643Z,22.20
2022-12-18T16:34:56.608Z,21.60
2022-12-18T16:37:25.177Z,22.10
2022-12-18T16:39:53.666Z,19.80
2022-12-18T16:42:22.553Z,19.50
2022-12-18T16:44:51.342Z,20.60
2022-12-18T16:47:20.437Z,21.70
2022-12-18T16:49:52.092Z,21.40
2022-12-18T16:52:23.133Z,24.80
2022-12-18T16:54:51.920Z,20.60
2022-12-18T16:57:24.021Z,19.90
2022-12-18T16:59:55.475Z,18.40
2022-12-18T17:02:27.718Z,20.70
2022-12-18T17:04:58.233Z,18.90
2022-12-18T17:07:28.681Z,19.30
2022-12-18T17:09:57.476Z,19.50
2022-12-18T17:12:27.051Z,18.50
2022-12-18T17:14:55.429Z,25.60
2022-12-18T17:17:24.274Z,23.40
2022-12-18T17:19:53.416Z,20.90
2022-12-18T17:22:23.636Z,20.50
2022-12-18T17:24:52.425Z,19.00
2022-12-18T17:27:21.112Z,20.40
2022-12-18T17:29:49.824Z,22.70
2022-12-18T17:32:18.499Z,34.40
2022-12-18T17:34:47.271Z,23.30
2022-12-18T17:37:16.978Z,29.40
2022-12-18T17:39:45.561Z,29.50
2022-12-18T17:42:15.903Z,34.20
2022-12-18T17:44:45.292Z,22.70
2022-12-18T17:47:14.492Z,26.70
2022-12-18T17:49:43.070Z,22.20
2022-12-18T17:52:11.857Z,17.60
2022-12-18T17:54:42.401Z,26.60
2022-12-18T17:57:11.274Z,21.30
2022-12-18T17:59:39.962Z,23.00
2022-12-18T18:02:11.695Z,26.00
2022-12-18T18:04:40.711Z,18.50
2022-12-18T18:07:10.434Z,22.00
2022-12-18T18:09:39.109Z,20.10
2022-12-18T18:12:26.532Z,24.80
2022-12-18T18:14:55.419Z,23.10
2022-12-18T18:17:24.107Z,25.10
2022-12-18T18:19:52.840Z,19.80
2022-12-18T18:22:21.580Z,22.40
2022-12-18T18:24:51.597Z,28.10
2022-12-18T18:27:20.188Z,23.10
2022-12-18T18:29:49.288Z,22.60
2022-12-18T18:32:17.859Z,19.30
2022-12-18T18:34:46.543Z,20.20
2022-12-18T18:37:15.124Z,19.20
2022-12-18T18:39:43.812Z,21.30
2022-12-18T18:42:12.394Z,23.90
2022-12-18T18:44:44.511Z,20.30
2022-12-18T18:47:16.423Z,23.00
2022-12-18T18:49:44.902Z,17.90
2022-12-18T18:52:13.589Z,22.00
2022-12-18T18:55:03.644Z,18.40
2022-12-18T18:57:30.840Z,18.10
2022-12-18T18:59:59.609Z,19.10
2022-12-18T19:02:28.261Z,20.70
2022-12-18T19:04:58.114Z,22.90
2022-12-18T19:07:30.949Z,20.70
2022-12-18T19:10:04.047Z,18.20
2022-12-18T19:12:53.965Z,21.50
2022-12-18T19:15:23.469Z,22.40
2022-12-18T19:17:53.077Z,21.60
2022-12-18T19:20:21.864Z,23.30
2022-12-18T19:22:55.183Z,23.00
2022-12-18T19:25:40.436Z,19.00
2022-12-18T19:28:15.983Z,22.50
2022-12-18T19:30:59.020Z,20.60
2022-12-18T19:33:45.924Z,21.20
2022-12-18T19:36:22.483Z,18.90
2022-12-18T19:38:53.252Z,21.80
2022-12-18T19:41:23.543Z,20.70
2022-12-18T19:43:54.579Z,21.20
2022-12-18T19:46:25.168Z,26.40
2022-12-18T19:48:54.104Z,22.90
2022-12-18T19:51:25.458Z,25.90
2022-12-18T19:53:58.813Z,21.40
2022-12-18T19:56:31.330Z,20.70
2022-12-18T19:59:00.751Z,23.80
2022-12-18T20:01:30.593Z,24.90
2022-12-18T20:06:34.482Z,22.60
2022-12-18T20:09:06.731Z,31.70
2022-12-18T20:11:41.206Z,21.80
2022-12-18T20:14:12.841Z,26.30
2022-12-18T20:16:42.051Z,25.90
2022-12-18T20:21:41.731Z,26.70
2022-12-18T20:24:10.620Z,23.90
2022-12-18T20:26:39.510Z,28.80
2022-12-18T20:29:08.302Z,25.80
2022-12-18T20:31:37.030Z,26.80
2022-12-18T20:34:06.143Z,20.10
2022-12-18T20:36:37.542Z,28.20
2022-12-18T20:39:09.871Z,30.90
2022-12-18T20:41:39.814Z,26.10
2022-12-18T20:44:22.960Z,27.20
2022-12-18T20:46:55.286Z,28.60
2022-12-18T20:49:26.013Z,26.80
2022-12-18T20:51:57.208Z,30.40
2022-12-18T20:54:27.729Z,23.50
2022-12-18T20:56:57.631Z,24.10
2022-12-18T20:59:26.521Z,21.40
2022-12-18T21:01:55.756Z,24.00
2022-12-18T21:04:25.227Z,23.10
2022-12-18T21:06:57.999Z,25.70
2022-12-18T21:09:37.538Z,29.40
2022-12-18T21:12:33.633Z,22.50
2022-12-18T21:15:12.395Z,21.10
2022-12-18T21:17:44.131Z,25.90
2022-12-18T21:20:17.627Z,30.70
2022-12-18T21:22:47.667Z,28.40
2022-12-18T21:25:16.465Z,28.40
2022-12-18T21:27:45.140Z,27.10
2022-12-18T21:30:15.501Z,31.10
2022-12-18T21:32:44.152Z,30.70
2022-12-18T21:35:13.142Z,26.80
2022-12-18T21:37:41.829Z,37.40
2022-12-18T21:40:11.336Z,28.10
2022-12-18T21:42:58.662Z,28.20
2022-12-18T21:45:27.650Z,32.70
2022-12-18T21:47:56.244Z,22.90
2022-12-18T21:50:25.021Z,31.70
2022-12-18T21:52:54.116Z,40.20
2022-12-18T21:55:23.010Z,37.30
2022-12-18T21:57:54.406Z,32.80
2022-12-18T22:00:23.320Z,40.90
2022-12-18T22:03:13.412Z,49.00
2022-12-18T22:05:41.403Z,39.70
2022-12-18T22:08:10.609Z,48.30
2022-12-18T22:10:39.949Z,41.80
2022-12-18T22:13:08.900Z,41.80
2022-12-18T22:15:37.635Z,38.40
2022-12-18T22:18:06.569Z,32.30
2022-12-18T22:20:35.191Z,34.10
2022-12-18T22:23:06.073Z,39.20
2022-12-18T22:25:39.894Z,39.80
2022-12-18T22:28:28.041Z,33.50
2022-12-18T22:33:29.109Z,30.00
2022-12-18T22:35:57.984Z,40.20
2022-12-18T22:38:26.775Z,52.10
2022-12-18T22:40:55.770Z,49.60
2022-12-18T22:43:24.455Z,41.00
2022-12-18T22:45:53.581Z,45.00
2022-12-18T22:48:22.238Z,52.90
2022-12-18T22:50:51.432Z,48.70
2022-12-18T22:53:25.036Z,51.70
2022-12-18T22:56:01.242Z,48.50
2022-12-18T22:58:30.219Z,54.20
2022-12-18T23:00:59.081Z,49.00
2022-12-18T23:03:28.313Z,41.10
2022-12-18T23:06:07.566Z,37.90
2022-12-18T23:08:36.921Z,32.90
2022-12-18T23:11:07.029Z,42.70
2022-12-18T23:13:36.137Z,41.90
2022-12-18T23:16:07.781Z,41.00
2022-12-18T23:18:37.596Z,51.00
2022-12-18T23:21:13.448Z,30.80
2022-12-18T23:23:45.252Z,44.90
2022-12-18T23:26:21.060Z,44.60
2022-12-18T23:28:51.807Z,27.70
2022-12-18T23:31:24.742Z,35.90
2022-12-18T23:33:55.767Z,44.20
2022-12-18T23:36:25.373Z,29.10
2022-12-18T23:38:57.395Z,33.40
2022-12-18T23:41:30.303Z,44.90
2022-12-18T23:44:01.007Z,37.50
2022-12-18T23:46:32.893Z,36.60
2022-12-18T23:49:05.839Z,37.00
2022-12-18T23:51:39.041Z,43.80
2022-12-18T23:54:09.373Z,38.00
2022-12-18T23:56:38.476Z,35.50
2022-12-18T23:59:07.868Z,42.20
